Shenandoah Heights, Pennsylvania
Current Conditions -  °F | °C
As of 12:15 PM on Thursday 27 Nov 2014 (Local Time) from KHZL Reporting Station
Overcast Overcast  
Wind Chill: 26°   Ceiling: 900
Heat Index: 32°   Visibility: 10mi
Dew Point: 28°   Wind: 7mph
Humidity: 87%   Direction: 310°NW
Pressure: 29.97"   Gusts: NA
Location:  40.8208°N, 76.1672°W
Report Text: KHZL 271715Z AUTO 31006KT 10SM BKN009 OVC012 00/M02 A2997 RMK AO2
Loading
Personal Weather Stations






























Interactive Weather Map New forecast layout! Learn more

10-Day Weather Forecast

Advertisements
Track Severe Weather on mobile